Time;durP1;ratioP1;P1;durP2;ratioP2;P2;SDS_P1;SDS_P2;PMS_P1;PMS_P2;Temp;Humidity;BMP_temperature;BMP_pressure;BME280_temperature;BME280_humidity;BME280_pressure;Samples;Min_cycle;Max_cycle;Signal;HPM_P1;HPM_P2
2023/01/15 00:01:25;;;;;;;62.60;33.38;;;2.10;80.40;;;;;;5073119;28;20035;-13
2023/01/15 00:03:53;;;;;;;61.97;31.52;;;2.10;80.30;;;;;;5072659;28;20017;-13
2023/01/15 00:06:21;;;;;;;51.53;28.10;;;2.10;80.40;;;;;;5072622;28;20032;-14
2023/01/15 00:08:47;;;;;;;54.67;29.52;;;2.10;80.50;;;;;;5072298;28;20021;-14
2023/01/15 00:11:13;;;;;;;37.35;22.95;;;2.10;80.50;;;;;;5072510;28;20389;-13
2023/01/15 00:13:40;;;;;;;46.92;26.92;;;2.10;80.50;;;;;;5072896;28;20024;-14
2023/01/15 00:16:27;;;;;;;46.53;26.42;;;2.20;80.60;;;;;;5072830;28;20027;-13
2023/01/15 00:18:55;;;;;;;36.15;22.00;;;2.20;80.30;;;;;;5072140;28;20104;-12
2023/01/15 00:21:21;;;;;;;38.58;21.27;;;2.30;80.50;;;;;;5072457;28;20476;-13
2023/01/15 00:29:19;;;;;;;41.55;25.75;;;2.40;80.50;;;;;;5073077;28;20140;-13
2023/01/15 00:31:54;;;;;;;33.50;20.30;;;2.40;80.60;;;;;;5072398;28;20029;-12
2023/01/15 00:34:20;;;;;;;54.97;30.88;;;2.40;80.30;;;;;;5072324;28;20228;-12
2023/01/15 00:36:45;;;;;;;53.45;31.38;;;2.50;80.40;;;;;;5072353;28;20021;-13
2023/01/15 00:39:11;;;;;;;48.85;28.92;;;2.50;80.10;;;;;;5072571;28;20033;-14
2023/01/15 00:41:37;;;;;;;61.75;31.60;;;2.50;79.80;;;;;;5072379;28;20040;-16
2023/01/15 00:44:03;;;;;;;41.85;25.85;;;2.50;79.70;;;;;;5072163;28;20025;-14
2023/01/15 00:46:28;;;;;;;57.20;31.85;;;2.50;79.70;;;;;;5072529;28;20060;-13
2023/01/15 00:48:54;;;;;;;52.65;29.27;;;2.50;79.80;;;;;;5089760;28;20499;-15
2023/01/15 00:51:20;;;;;;;59.78;33.30;;;2.60;79.90;;;;;;5076730;28;20050;-14
2023/01/15 00:53:46;;;;;;;59.17;33.83;;;2.60;80.00;;;;;;5076303;28;20056;-13
2023/01/15 00:56:11;;;;;;;58.78;32.47;;;2.60;80.00;;;;;;5076371;28;20074;-14
2023/01/15 00:58:37;;;;;;;51.67;30.20;;;2.70;79.90;;;;;;5076217;28;20456;-13
2023/01/15 01:01:03;;;;;;;55.97;31.05;;;2.80;79.80;;;;;;5076147;28;20059;-13
2023/01/15 01:03:29;;;;;;;54.28;31.27;;;2.80;79.90;;;;;;5075944;28;20463;-13
2023/01/15 01:06:00;;;;;;;51.53;31.00;;;2.80;80.00;;;;;;5076165;28;20025;-13
2023/01/15 01:08:26;;;;;;;51.17;31.52;;;2.90;79.90;;;;;;5076116;28;20032;-12
2023/01/15 01:11:01;;;;;;;43.10;25.55;;;2.90;80.10;;;;;;5075710;28;20070;-13
2023/01/15 01:13:27;;;;;;;53.35;31.75;;;2.90;80.00;;;;;;5076194;28;20029;-14
2023/01/15 01:15:53;;;;;;;53.40;31.30;;;2.90;80.00;;;;;;5075794;28;20073;-12
2023/01/15 01:18:18;;;;;;;55.80;31.88;;;2.90;79.90;;;;;;5075698;28;20024;-14
2023/01/15 01:20:44;;;;;;;56.92;31.60;;;3.00;80.00;;;;;;5075872;28;20141;-13
2023/01/15 01:23:10;;;;;;;54.72;31.73;;;3.00;79.90;;;;;;5075445;28;20028;-13
2023/01/15 01:25:35;;;;;;;58.13;31.92;;;3.10;79.80;;;;;;5075893;28;20028;-14
2023/01/15 01:28:01;;;;;;;52.92;31.13;;;3.10;79.80;;;;;;5075226;28;20048;-13
2023/01/15 01:30:27;;;;;;;49.03;29.30;;;3.10;79.80;;;;;;5075787;28;20028;-14
2023/01/15 01:32:53;;;;;;;48.40;28.67;;;3.10;79.70;;;;;;5075202;28;20033;-13
2023/01/15 01:35:18;;;;;;;53.78;29.92;;;3.20;79.80;;;;;;5075451;28;20036;-14
2023/01/15 01:37:49;;;;;;;53.70;28.88;;;3.30;79.80;;;;;;5075349;28;20027;-13
2023/01/15 01:40:17;;;;;;;53.30;27.50;;;3.30;79.70;;;;;;5075660;28;20028;-13
2023/01/15 01:42:43;;;;;;;45.25;26.05;;;3.40;79.80;;;;;;5075672;28;20021;-13
2023/01/15 01:45:31;;;;;;;45.83;26.10;;;3.50;79.80;;;;;;5075415;28;20024;-14
2023/01/15 01:48:02;;;;;;;44.35;24.52;;;3.50;79.70;;;;;;5075498;28;20028;-13
2023/01/15 01:50:31;;;;;;;41.90;24.50;;;3.50;79.90;;;;;;5075157;28;20028;-14
2023/01/15 01:53:11;;;;;;;41.67;24.15;;;3.60;80.00;;;;;;5074869;28;20116;-13
2023/01/15 01:55:37;;;;;;;42.60;22.08;;;3.70;79.80;;;;;;5075612;28;20052;-13
2023/01/15 01:58:06;;;;;;;41.63;22.92;;;3.70;80.00;;;;;;5075317;28;20056;-12
2023/01/15 02:00:35;;;;;;;37.95;21.90;;;3.70;80.10;;;;;;5074402;28;20056;-14
2023/01/15 02:03:04;;;;;;;32.95;19.25;;;3.80;80.10;;;;;;5074636;28;20023;-13
2023/01/15 02:05:34;;;;;;;31.08;18.17;;;3.80;80.20;;;;;;5074848;28;20035;-15
2023/01/15 02:08:00;;;;;;;34.92;19.50;;;3.90;80.00;;;;;;5073427;28;20051;-14
2023/01/15 02:10:27;;;;;;;28.30;17.40;;;3.90;80.20;;;;;;5074808;28;20477;-13
2023/01/15 02:13:04;;;;;;;31.05;18.48;;;3.90;80.20;;;;;;5074573;28;20021;-14
2023/01/15 02:15:41;;;;;;;30.55;17.35;;;4.00;80.10;;;;;;5074676;28;20396;-12
2023/01/15 02:18:33;;;;;;;34.10;19.83;;;4.00;80.10;;;;;;5073379;28;20044;-13
2023/01/15 02:21:24;;;;;;;27.70;16.88;;;4.10;80.10;;;;;;5074221;28;20020;-14
2023/01/15 02:24:05;;;;;;;41.63;24.55;;;4.10;80.20;;;;;;5070551;28;20036;-13
2023/01/15 02:26:40;;;;;;;37.65;22.33;;;4.10;80.10;;;;;;5074314;28;20097;-13
2023/01/15 02:29:12;;;;;;;35.15;21.73;;;4.10;80.10;;;;;;5074254;28;20417;-13
2023/01/15 02:31:42;;;;;;;37.80;24.15;;;4.10;80.00;;;;;;5074371;28;20097;-13
2023/01/15 02:34:13;;;;;;;38.88;23.17;;;4.10;79.90;;;;;;5074732;28;20020;-14
2023/01/15 02:36:43;;;;;;;32.15;20.25;;;4.10;80.00;;;;;;5074381;28;20123;-14
2023/01/15 02:39:14;;;;;;;38.42;23.13;;;4.10;80.10;;;;;;5074036;28;20385;-14
2023/01/15 02:41:46;;;;;;;35.38;20.90;;;4.10;80.20;;;;;;5074566;28;20044;-14
2023/01/15 02:44:16;;;;;;;35.40;20.70;;;4.10;80.20;;;;;;5072842;28;20027;-15
2023/01/15 02:46:43;;;;;;;27.30;18.23;;;4.10;80.30;;;;;;5073961;28;20024;-13
2023/01/15 02:49:13;;;;;;;30.80;18.35;;;4.20;80.40;;;;;;5073716;28;20024;-12
2023/01/15 02:51:46;;;;;;;35.63;20.02;;;4.20;80.40;;;;;;5074245;28;20119;-12
2023/01/15 02:54:16;;;;;;;36.67;20.58;;;4.20;80.40;;;;;;5074030;28;20486;-14
2023/01/15 02:56:44;;;;;;;34.47;20.27;;;4.30;80.40;;;;;;5073795;28;20040;-12
2023/01/15 02:59:22;;;;;;;28.40;16.58;;;4.30;80.50;;;;;;5073645;28;20127;-12
2023/01/15 03:01:58;;;;;;;32.30;17.92;;;4.40;80.40;;;;;;5072589;28;20119;-11
2023/01/15 03:04:32;;;;;;;22.33;14.00;;;4.40;80.40;;;;;;5074068;28;20072;-14
2023/01/15 03:07:19;;;;;;;18.77;12.43;;;4.40;80.20;;;;;;5073496;28;20028;-11
2023/01/15 03:09:47;;;;;;;26.38;14.65;;;4.50;79.90;;;;;;5073952;28;20082;-12
2023/01/15 03:12:12;;;;;;;25.20;14.50;;;4.60;79.80;;;;;;5072738;28;20036;-13
2023/01/15 03:15:10;;;;;;;26.15;15.45;;;4.60;79.80;;;;;;5073552;28;20020;-14
2023/01/15 03:17:48;;;;;;;23.23;15.18;;;4.70;80.10;;;;;;5074598;28;20079;-14
2023/01/15 03:20:24;;;;;;;25.02;16.10;;;4.70;80.30;;;;;;5073728;28;20028;-12
2023/01/15 03:22:59;;;;;;;22.00;13.90;;;4.80;80.30;;;;;;5073558;28;20059;-12
2023/01/15 03:25:36;;;;;;;19.85;12.85;;;4.90;80.20;;;;;;5073368;28;20033;-13
2023/01/15 03:28:04;;;;;;;25.83;15.77;;;4.90;80.10;;;;;;5073061;28;20072;-13
2023/01/15 03:30:32;;;;;;;30.55;18.67;;;4.90;80.20;;;;;;5073114;28;20044;-13
2023/01/15 03:32:58;;;;;;;37.38;19.42;;;4.90;80.30;;;;;;5072935;28;20036;-13
2023/01/15 03:35:42;;;;;;;19.52;11.93;;;5.00;80.30;;;;;;5073297;28;20032;-14
2023/01/15 03:38:10;;;;;;;21.58;13.52;;;5.00;80.00;;;;;;5073354;28;20029;-12
2023/01/15 03:40:40;;;;;;;25.30;15.20;;;5.00;80.30;;;;;;5073351;28;20052;-13
2023/01/15 03:46:03;;;;;;;20.45;12.77;;;5.00;80.30;;;;;;5073381;28;20381;-13
2023/01/15 03:48:38;;;;;;;28.33;15.57;;;5.10;80.20;;;;;;5073135;28;20115;-12
2023/01/15 03:51:07;;;;;;;28.02;15.70;;;5.10;80.30;;;;;;5072765;28;20074;-12
2023/01/15 03:53:54;;;;;;;23.63;13.95;;;5.10;80.30;;;;;;5072736;28;20024;-13
2023/01/15 03:56:22;;;;;;;25.08;16.20;;;5.10;79.90;;;;;;5073144;28;20169;-11
2023/01/15 03:59:12;;;;;;;28.65;18.15;;;5.20;79.70;;;;;;5072536;28;20111;-12
2023/01/15 04:01:41;;;;;;;31.80;18.80;;;5.20;79.70;;;;;;5072469;28;20493;-12
2023/01/15 04:04:08;;;;;;;25.27;15.10;;;5.10;79.90;;;;;;5072763;28;20455;-12
2023/01/15 04:06:37;;;;;;;30.25;16.00;;;5.10;79.90;;;;;;5072785;28;20047;-12
2023/01/15 04:09:07;;;;;;;24.83;14.55;;;5.10;79.90;;;;;;5073127;28;20031;-11
2023/01/15 04:11:33;;;;;;;25.17;15.27;;;5.10;79.90;;;;;;5073006;28;20035;-13
2023/01/15 04:13:59;;;;;;;22.08;13.85;;;5.10;80.00;;;;;;5072535;28;20400;-11
2023/01/15 04:16:27;;;;;;;26.77;16.15;;;5.10;79.80;;;;;;5072645;28;20568;-13
2023/01/15 04:18:54;;;;;;;24.25;14.10;;;5.10;79.90;;;;;;5072595;28;20025;-11
2023/01/15 04:21:20;;;;;;;29.08;17.08;;;5.10;79.90;;;;;;5072613;28;20097;-12
2023/01/15 04:23:46;;;;;;;23.00;15.05;;;5.10;80.00;;;;;;5072306;28;20035;-13
2023/01/15 04:26:13;;;;;;;20.50;12.57;;;5.10;80.00;;;;;;5072410;28;20111;-12
2023/01/15 04:28:39;;;;;;;21.23;13.43;;;5.10;80.00;;;;;;5072864;28;20141;-12
2023/01/15 04:31:05;;;;;;;29.13;18.30;;;5.10;79.80;;;;;;5072271;28;20029;-12
2023/01/15 04:33:31;;;;;;;24.63;15.00;;;5.10;79.90;;;;;;5072706;28;20051;-12
2023/01/15 04:36:03;;;;;;;27.65;15.95;;;5.10;79.90;;;;;;5072411;28;20032;-12
2023/01/15 04:38:29;;;;;;;24.98;14.27;;;5.10;79.90;;;;;;5072592;28;20024;-13
2023/01/15 04:46:27;;;;;;;;;;;4.90;80.00;;;;;;5073046;28;20035;-13
2023/01/15 04:48:53;;;;;;;26.95;16.17;;;4.90;80.00;;;;;;5072507;28;19912;-12
2023/01/15 04:51:19;;;;;;;23.35;13.88;;;4.90;79.90;;;;;;5072153;28;20069;-12
2023/01/15 04:53:44;;;;;;;26.85;16.33;;;4.80;79.90;;;;;;5072460;28;20029;-12
2023/01/15 04:56:10;;;;;;;26.88;15.75;;;4.80;79.90;;;;;;5072986;28;20204;-12
2023/01/15 04:58:37;;;;;;;26.60;15.25;;;4.60;79.90;;;;;;5072156;28;20081;-11
2023/01/15 05:01:11;;;;;;;18.73;12.07;;;4.60;79.90;;;;;;5072338;28;20028;-12
2023/01/15 05:03:37;;;;;;;20.10;12.65;;;4.40;80.00;;;;;;5072346;28;20035;-12
2023/01/15 05:06:03;;;;;;;22.67;13.45;;;4.40;80.20;;;;;;5072366;28;20107;-13
2023/01/15 05:08:29;;;;;;;21.77;13.10;;;4.40;80.40;;;;;;5072084;28;20041;-13
2023/01/15 05:10:55;;;;;;;15.55;9.65;;;4.30;80.50;;;;;;5071837;28;20029;-12
2023/01/15 05:13:21;;;;;;;22.08;12.50;;;4.30;80.50;;;;;;5072343;28;20116;-12
2023/01/15 05:15:47;;;;;;;23.50;13.90;;;4.30;80.60;;;;;;5072528;28;20103;-13
2023/01/15 05:18:14;;;;;;;23.33;13.55;;;4.20;80.70;;;;;;5072259;28;20383;-12
2023/01/15 05:20:40;;;;;;;29.20;15.70;;;4.20;80.70;;;;;;5071914;28;20035;-13
2023/01/15 05:23:07;;;;;;;30.52;15.50;;;4.20;80.70;;;;;;5072113;28;20024;-12
2023/01/15 05:25:35;;;;;;;23.90;13.20;;;4.10;80.80;;;;;;5071964;28;20024;-12
2023/01/15 05:28:01;;;;;;;30.60;17.15;;;4.10;80.70;;;;;;5071814;28;20079;-12
2023/01/15 05:30:27;;;;;;;30.15;16.80;;;4.10;80.70;;;;;;5071970;28;20060;-14
2023/01/15 05:32:53;;;;;;;29.83;16.95;;;4.10;80.80;;;;;;5070312;28;20050;-12
2023/01/15 05:35:18;;;;;;;32.10;17.77;;;4.10;80.90;;;;;;5074270;28;20090;-13
2023/01/15 05:37:44;;;;;;;29.88;17.40;;;4.10;80.90;;;;;;5075579;28;20048;-13
2023/01/15 05:40:10;;;;;;;25.60;15.35;;;4.10;81.00;;;;;;5075665;28;20362;-12
2023/01/15 05:42:36;;;;;;;32.58;18.80;;;4.00;81.00;;;;;;5075309;28;20032;-12
2023/01/15 05:45:03;;;;;;;26.35;13.55;;;4.10;81.10;;;;;;5073877;28;20031;-12
2023/01/15 05:47:28;;;;;;;25.35;14.68;;;4.10;81.00;;;;;;5075120;28;20182;-12
2023/01/15 05:49:54;;;;;;;25.90;14.60;;;4.10;81.10;;;;;;5075025;28;20058;-12
2023/01/15 05:52:20;;;;;;;29.83;15.80;;;4.10;81.20;;;;;;5075534;28;20029;-12
2023/01/15 05:54:48;;;;;;;24.77;14.18;;;4.20;81.30;;;;;;5074959;28;20366;-16
2023/01/15 05:57:14;;;;;;;26.38;14.95;;;4.20;81.20;;;;;;5075329;28;20016;-12
2023/01/15 05:59:40;;;;;;;25.20;14.35;;;4.30;81.20;;;;;;5074940;28;20085;-12
2023/01/15 06:02:06;;;;;;;26.98;15.07;;;4.30;81.00;;;;;;5075202;28;20077;-13
2023/01/15 06:04:32;;;;;;;22.40;12.95;;;4.30;81.10;;;;;;5075143;28;20025;-13
2023/01/15 06:06:58;;;;;;;33.50;18.63;;;4.40;80.90;;;;;;5074664;28;20032;-13
2023/01/15 06:09:26;;;;;;;30.60;17.08;;;4.40;80.90;;;;;;5074793;28;20064;-12
2023/01/15 06:11:53;;;;;;;28.92;16.67;;;4.40;80.90;;;;;;5075286;28;20074;-12
2023/01/15 06:14:18;;;;;;;31.40;17.95;;;4.40;81.00;;;;;;5074803;28;20024;-12
2023/01/15 06:16:44;;;;;;;36.30;20.23;;;4.40;80.90;;;;;;5073639;28;20024;-12
2023/01/15 06:19:12;;;;;;;36.30;20.13;;;4.40;80.90;;;;;;5074535;28;20027;-12
2023/01/15 06:21:38;;;;;;;31.15;18.17;;;4.40;80.80;;;;;;5075274;28;20106;-11
2023/01/15 06:24:04;;;;;;;29.85;17.85;;;4.40;80.90;;;;;;5074589;28;20492;-13
2023/01/15 06:26:30;;;;;;;27.08;16.17;;;4.50;80.90;;;;;;5074580;28;20064;-12
2023/01/15 06:28:56;;;;;;;33.78;19.92;;;4.50;80.90;;;;;;5073782;28;20392;-13
2023/01/15 06:31:25;;;;;;;28.42;16.35;;;4.50;80.90;;;;;;5074737;28;20070;-13
2023/01/15 06:33:51;;;;;;;25.73;15.90;;;4.50;80.90;;;;;;5074245;28;20396;-13
2023/01/15 06:36:20;;;;;;;25.52;15.52;;;4.50;81.10;;;;;;5074139;28;20480;-13
2023/01/15 06:38:46;;;;;;;25.90;15.18;;;4.60;80.80;;;;;;5074501;28;20032;-13
2023/01/15 06:49:36;;;;;;;22.67;14.50;;;4.80;80.90;;;;;;5074348;28;20097;-12
2023/01/15 06:52:03;;;;;;;28.98;15.88;;;4.90;80.70;;;;;;5074581;28;20094;-13
2023/01/15 06:54:29;;;;;;;29.92;17.77;;;4.90;80.60;;;;;;5073943;28;20097;-13
2023/01/15 06:56:55;;;;;;;28.10;16.77;;;4.90;80.60;;;;;;5073691;28;20023;-13
2023/01/15 06:59:20;;;;;;;21.42;14.95;;;4.90;80.70;;;;;;5072606;28;20115;-13
2023/01/15 07:01:46;;;;;;;32.47;18.80;;;4.90;80.60;;;;;;5074065;28;20033;-12
2023/01/15 07:04:12;;;;;;;31.95;19.08;;;5.00;80.80;;;;;;5074147;28;20036;-13
2023/01/15 07:06:38;;;;;;;32.47;20.17;;;5.00;80.90;;;;;;5073796;28;20104;-13
2023/01/15 07:09:04;;;;;;;34.28;20.17;;;5.00;81.00;;;;;;5073810;28;20056;-13
2023/01/15 07:11:30;;;;;;;26.65;16.42;;;4.90;81.10;;;;;;5074001;28;20024;-12
2023/01/15 07:14:05;;;;;;;31.20;20.25;;;5.00;81.00;;;;;;5073571;28;20048;-13
2023/01/15 07:16:32;;;;;;;29.55;17.85;;;4.90;81.30;;;;;;5073820;28;20436;-13
2023/01/15 07:18:58;;;;;;;64.40;32.85;;;4.90;81.00;;;;;;5073271;28;20583;-13
2023/01/15 07:21:24;;;;;;;37.42;24.70;;;4.90;80.90;;;;;;5073529;28;20115;-13
2023/01/15 07:23:50;;;;;;;55.80;27.65;;;4.90;80.90;;;;;;5073928;28;20488;-13
2023/01/15 07:26:16;;;;;;;48.05;27.90;;;4.90;80.90;;;;;;5073166;28;20388;-13
2023/01/15 07:28:41;;;;;;;63.17;35.25;;;4.90;81.00;;;;;;5072056;28;20036;-12
2023/01/15 07:31:07;;;;;;;38.83;23.45;;;5.00;81.00;;;;;;5073002;28;20020;-13
2023/01/15 07:33:33;;;;;;;37.10;22.73;;;5.00;81.10;;;;;;5073406;28;20093;-13
2023/01/15 07:36:02;;;;;;;40.80;23.35;;;5.00;81.00;;;;;;5073012;28;20504;-13
2023/01/15 07:38:27;;;;;;;34.40;20.83;;;5.00;81.00;;;;;;5072130;28;20012;-14
2023/01/15 07:51:55;;;;;;;36.08;22.30;;;5.30;80.80;;;;;;5073204;28;20031;-13
2023/01/15 07:54:21;;;;;;;37.78;24.70;;;5.40;80.50;;;;;;5073260;28;20025;-14
2023/01/15 07:56:48;;;;;;;44.13;27.30;;;5.40;80.50;;;;;;5072142;28;20496;-13
2023/01/15 07:59:14;;;;;;;31.55;21.77;;;5.40;80.60;;;;;;5072889;28;20032;-14
2023/01/15 08:01:39;;;;;;;44.88;27.85;;;5.40;80.60;;;;;;5072812;28;20073;-13
2023/01/15 08:04:05;;;;;;;41.97;27.27;;;5.50;80.60;;;;;;5072816;28;20035;-14
2023/01/15 08:06:31;;;;;;;43.45;26.52;;;5.60;80.50;;;;;;5072497;28;20036;-13
2023/01/15 08:08:57;;;;;;;43.10;26.00;;;5.60;80.40;;;;;;5072795;28;20074;-11
2023/01/15 08:16:53;;;;;;;56.28;33.63;;;5.70;80.20;;;;;;5072641;28;20040;-12
2023/01/15 08:19:19;;;;;;;43.55;27.95;;;5.80;80.50;;;;;;5073274;28;20033;-12
2023/01/15 08:21:45;;;;;;;36.30;23.75;;;5.80;80.50;;;;;;5072446;28;20092;-11
2023/01/15 08:24:11;;;;;;;40.35;25.98;;;5.80;80.40;;;;;;5072616;28;20029;-11
2023/01/15 08:26:37;;;;;;;36.97;23.80;;;5.90;80.50;;;;;;5072575;28;20053;-13
2023/01/15 08:29:03;;;;;;;40.97;25.50;;;5.90;80.50;;;;;;5072279;28;20048;-17
2023/01/15 08:31:28;;;;;;;37.90;24.83;;;6.00;80.40;;;;;;5072471;28;20025;-12
2023/01/15 08:33:54;;;;;;;42.88;26.73;;;6.10;80.10;;;;;;5072355;28;20097;-12
2023/01/15 08:36:20;;;;;;;47.20;31.17;;;6.10;80.00;;;;;;5072342;28;20062;-13
2023/01/15 08:38:49;;;;;;;55.35;34.80;;;6.10;80.00;;;;;;5072690;28;20074;-13
2023/01/15 08:41:15;;;;;;;44.25;30.95;;;6.10;79.70;;;;;;5072590;28;20031;-12
2023/01/15 08:43:40;;;;;;;51.05;33.65;;;6.10;79.90;;;;;;5072290;28;20021;-12
2023/01/15 08:46:06;;;;;;;49.17;29.55;;;6.00;79.80;;;;;;5072163;28;20021;-12
2023/01/15 08:48:32;;;;;;;46.13;27.38;;;6.10;79.90;;;;;;5072533;28;20028;-13
2023/01/15 08:51:02;;;;;;;34.38;23.80;;;6.10;80.10;;;;;;5072574;28;20430;-12
2023/01/15 08:53:28;;;;;;;38.03;25.25;;;6.10;80.10;;;;;;5072318;28;20538;-14
2023/01/15 08:55:54;;;;;;;39.25;26.13;;;6.20;80.20;;;;;;5072838;28;20174;-13
2023/01/15 08:58:20;;;;;;;33.63;22.27;;;6.20;80.20;;;;;;5072151;28;20024;-13
2023/01/15 09:00:47;;;;;;;33.22;22.33;;;6.30;80.10;;;;;;5072258;28;20025;-15
2023/01/15 09:03:13;;;;;;;34.97;24.10;;;6.40;80.20;;;;;;5072306;28;20033;-12
2023/01/15 09:05:39;;;;;;;34.03;23.42;;;6.50;80.20;;;;;;5072083;28;20096;-13
2023/01/15 09:08:06;;;;;;;41.97;27.88;;;6.60;80.10;;;;;;5072527;28;20029;-14
2023/01/15 09:10:33;;;;;;;42.00;28.63;;;6.70;80.10;;;;;;5075371;28;20024;-13
2023/01/15 09:13:02;;;;;;;58.13;35.65;;;6.70;80.00;;;;;;5075500;28;20032;-13
2023/01/15 09:15:31;;;;;;;52.80;32.25;;;6.80;79.80;;;;;;5075801;28;20043;-14
2023/01/15 09:17:57;;;;;;;42.85;28.88;;;6.80;79.50;;;;;;5076027;28;20091;-13
2023/01/15 09:20:23;;;;;;;50.22;31.70;;;6.80;79.30;;;;;;5075948;28;20021;-12
2023/01/15 09:22:51;;;;;;;38.38;25.27;;;6.80;79.30;;;;;;5075721;28;20139;-13
2023/01/15 09:25:18;;;;;;;37.10;25.15;;;6.80;79.30;;;;;;5075608;28;20477;-14
2023/01/15 09:27:48;;;;;;;37.10;25.65;;;6.80;79.20;;;;;;5075286;28;20045;-13
2023/01/15 09:30:19;;;;;;;34.75;24.10;;;6.90;79.20;;;;;;5075860;28;20028;-12
2023/01/15 09:32:45;;;;;;;34.38;23.25;;;6.90;79.30;;;;;;5075894;28;20498;-12
2023/01/15 09:35:11;;;;;;;46.67;29.20;;;7.00;79.30;;;;;;5075603;28;20108;-13
2023/01/15 09:37:37;;;;;;;43.42;27.20;;;7.10;79.20;;;;;;5075653;28;20579;-13
2023/01/15 09:40:05;;;;;;;41.20;28.02;;;7.20;79.10;;;;;;5075672;28;20025;-12
2023/01/15 09:42:48;;;;;;;35.67;24.70;;;7.30;78.80;;;;;;5075576;28;20025;-14
2023/01/15 09:45:26;;;;;;;40.05;28.27;;;7.30;78.50;;;;;;5075313;28;20476;-13
2023/01/15 09:48:03;;;;;;;47.42;32.88;;;7.30;78.40;;;;;;5076069;28;20132;-13
2023/01/15 09:50:44;;;;;;;47.78;32.63;;;7.30;78.40;;;;;;5075109;28;20029;-12
2023/01/15 09:53:49;;;;;;;43.00;28.58;;;7.40;78.30;;;;;;5075565;28;20195;-13
2023/01/15 09:56:26;;;;;;;46.55;29.52;;;7.30;78.40;;;;;;5076177;28;20036;-13
2023/01/15 09:58:54;;;;;;;43.47;27.50;;;7.30;78.40;;;;;;5074963;28;20186;-14
2023/01/15 10:01:28;;;;;;;39.58;26.50;;;7.30;78.30;;;;;;5075203;28;20032;-13
2023/01/15 10:04:14;;;;;;;38.25;24.15;;;7.30;78.20;;;;;;5075242;28;20040;-13
2023/01/15 10:06:50;;;;;;;41.63;28.05;;;7.30;78.10;;;;;;5070697;28;20044;-13
2023/01/15 10:09:34;;;;;;;43.92;27.05;;;7.20;78.10;;;;;;5074845;28;20125;-13
2023/01/15 10:12:34;;;;;;;37.63;25.20;;;7.20;77.90;;;;;;5075275;28;20033;-14
2023/01/15 10:15:33;;;;;;;37.33;23.73;;;7.20;78.20;;;;;;5074855;28;20085;-14
2023/01/15 10:17:59;;;;;;;33.58;20.88;;;7.20;78.10;;;;;;5074718;28;20064;-13
2023/01/15 10:20:47;;;;;;;30.17;20.45;;;7.30;78.30;;;;;;5074482;28;20044;-12
2023/01/15 10:23:46;;;;;;;26.90;17.73;;;7.30;78.40;;;;;;5074519;28;20020;-13
2023/01/15 10:26:41;;;;;;;26.88;18.58;;;7.50;78.40;;;;;;5074254;28;20123;-12
2023/01/15 10:29:39;;;;;;;30.80;19.27;;;7.70;78.20;;;;;;5072457;28;20487;-13
2023/01/15 10:32:35;;;;;;;30.92;20.02;;;7.80;78.00;;;;;;5055247;28;20029;-12
2023/01/15 10:35:24;;;;;;;24.30;16.50;;;7.90;77.60;;;;;;5074125;28;20103;-12
2023/01/15 10:38:09;;;;;;;33.00;19.65;;;8.00;77.60;;;;;;5074715;28;20028;-21
2023/01/15 10:41:16;;;;;;;29.98;18.92;;;8.20;77.40;;;;;;5074494;28;20522;-11
2023/01/15 10:44:21;;;;;;;30.10;20.45;;;8.30;77.20;;;;;;5074104;28;20042;-13
2023/01/15 10:46:52;;;;;;;;;;;8.40;76.70;;;;;;5063605;28;20040;-13
2023/01/15 10:49:18;;;;;;;31.58;20.27;;;8.40;76.60;;;;;;5074114;28;20047;-13
2023/01/15 10:52:04;;;;;;;32.22;21.42;;;8.40;76.60;;;;;;5073884;28;20159;-13
2023/01/15 10:54:40;;;;;;;33.00;20.73;;;8.50;76.40;;;;;;5074239;28;20035;-12
2023/01/15 10:57:41;;;;;;;26.58;17.63;;;8.50;76.20;;;;;;5074406;28;20044;-12
2023/01/15 11:00:09;;;;;;;29.38;18.67;;;8.60;76.30;;;;;;5070155;28;20055;-14
2023/01/15 11:02:49;;;;;;;34.03;22.85;;;8.70;76.30;;;;;;5073990;28;20528;-13
2023/01/15 11:05:21;;;;;;;37.85;24.33;;;8.80;75.90;;;;;;5073852;28;20120;-12
2023/01/15 11:07:49;;;;;;;40.08;24.98;;;8.80;75.70;;;;;;5073614;28;20036;-12
2023/01/15 11:10:19;;;;;;;37.75;25.20;;;8.90;75.50;;;;;;5073567;28;20488;-12
2023/01/15 11:21:18;;;;;;;35.22;21.77;;;8.70;75.60;;;;;;5073944;28;20523;-13
2023/01/15 11:23:44;;;;;;;38.08;24.83;;;8.70;75.50;;;;;;5073907;28;20431;-12
2023/01/15 11:26:19;;;;;;;36.05;23.67;;;8.60;75.50;;;;;;5073074;28;20381;-11
2023/01/15 11:28:46;;;;;;;37.17;25.38;;;8.60;75.70;;;;;;5073220;28;20043;-13
2023/01/15 11:31:13;;;;;;;33.03;22.70;;;8.60;75.60;;;;;;5072982;28;20036;-13
2023/01/15 11:33:42;;;;;;;33.80;21.08;;;8.60;75.60;;;;;;5073395;28;20032;-12
2023/01/15 11:36:21;;;;;;;33.70;22.30;;;8.50;75.60;;;;;;5073045;28;20028;-12
2023/01/15 11:38:49;;;;;;;41.65;24.85;;;8.50;75.60;;;;;;5073195;28;20349;-12
2023/01/15 11:52:33;;;;;;;29.35;18.50;;;8.40;75.60;;;;;;5073204;28;19915;-13
2023/01/15 11:55:01;;;;;;;30.00;19.88;;;8.30;75.70;;;;;;5072918;28;20441;-12
2023/01/15 11:57:31;;;;;;;29.02;19.08;;;8.20;75.90;;;;;;5072843;28;20024;-12
2023/01/15 11:59:58;;;;;;;31.00;20.42;;;8.20;76.10;;;;;;5072801;28;20021;-12
2023/01/15 12:05:19;;;;;;;37.80;23.38;;;8.20;76.20;;;;;;5072840;28;20017;-12
2023/01/15 12:07:48;;;;;;;32.38;20.77;;;8.20;76.30;;;;;;5071234;28;20040;-11
2023/01/15 12:11:03;;;;;;;32.13;20.35;;;8.20;76.30;;;;;;5072941;28;20025;-13
2023/01/15 12:13:56;;;;;;;29.90;19.90;;;8.20;76.80;;;;;;5072644;28;20461;-13
2023/01/15 12:16:33;;;;;;;32.35;21.40;;;8.30;76.70;;;;;;5072691;28;20029;-12
2023/01/15 12:19:36;;;;;;;33.95;20.13;;;8.30;76.40;;;;;;5072635;28;20036;-11
2023/01/15 12:22:20;;;;;;;31.25;19.27;;;8.30;76.70;;;;;;5071778;28;20506;-13
2023/01/15 12:24:51;;;;;;;33.50;20.70;;;8.30;76.70;;;;;;5072535;28;20021;-10
2023/01/15 12:27:20;;;;;;;35.17;22.58;;;8.30;76.70;;;;;;5072413;28;20067;-11
2023/01/15 12:30:00;;;;;;;33.25;21.08;;;8.30;76.70;;;;;;5072412;28;20077;-12
2023/01/15 12:32:34;;;;;;;33.25;22.13;;;8.20;76.90;;;;;;5072791;28;20038;-12
2023/01/15 12:35:24;;;;;;;31.38;20.40;;;8.10;77.00;;;;;;5072589;28;20097;-11
2023/01/15 12:37:54;;;;;;;35.20;23.50;;;8.10;77.30;;;;;;5072858;28;20103;-11
2023/01/15 12:40:31;;;;;;;33.10;22.30;;;8.10;77.90;;;;;;5072325;28;20042;-13
2023/01/15 12:45:56;;;;;;;35.92;21.23;;;8.10;77.50;;;;;;5076782;28;20066;-12
2023/01/15 12:48:38;;;;;;;34.75;22.90;;;8.00;77.90;;;;;;5076358;28;20028;-12
2023/01/15 12:51:06;;;;;;;30.48;20.23;;;8.00;78.00;;;;;;5076168;28;20082;-13
2023/01/15 12:53:44;;;;;;;35.80;23.15;;;8.00;77.90;;;;;;5076657;28;20213;-12
2023/01/15 12:56:22;;;;;;;31.52;18.52;;;8.00;78.10;;;;;;5076259;28;20028;-12
2023/01/15 12:59:13;;;;;;;29.92;20.02;;;8.00;78.20;;;;;;5076480;28;20494;-12
2023/01/15 13:02:03;;;;;;;32.80;21.55;;;8.10;78.20;;;;;;5076492;28;20035;-12
2023/01/15 13:04:51;;;;;;;35.00;22.95;;;8.10;78.20;;;;;;5076041;28;20108;-12
2023/01/15 13:07:40;;;;;;;32.65;21.30;;;8.10;78.10;;;;;;5075905;28;20086;-12
2023/01/15 13:10:17;;;;;;;30.65;20.90;;;8.10;78.20;;;;;;5076009;28;20119;-11
2023/01/15 13:12:43;;;;;;;26.65;16.75;;;8.10;78.50;;;;;;5075578;28;20036;-12
2023/01/15 13:15:14;;;;;;;26.95;17.33;;;8.10;78.40;;;;;;5075789;28;20429;-12
2023/01/15 13:18:13;;;;;;;24.75;17.88;;;8.10;78.60;;;;;;5076045;28;20029;-12
2023/01/15 13:20:53;;;;;;;27.20;17.63;;;8.10;78.70;;;;;;5075765;28;20039;-12
2023/01/15 13:23:25;;;;;;;36.22;23.75;;;8.20;78.60;;;;;;5076117;28;20020;-13
2023/01/15 13:25:51;;;;;;;32.65;22.05;;;8.30;78.50;;;;;;5075397;28;20047;-13
2023/01/15 13:28:35;;;;;;;40.20;22.67;;;8.20;78.60;;;;;;5075259;28;20052;-13
2023/01/15 13:31:35;;;;;;;26.83;18.50;;;8.20;78.60;;;;;;5075230;28;20036;-14
2023/01/15 13:34:10;;;;;;;25.20;16.10;;;8.20;78.90;;;;;;5075543;28;20024;-13
2023/01/15 13:36:42;;;;;;;24.23;15.85;;;8.30;78.90;;;;;;5075452;28;20025;-13
2023/01/15 13:39:20;;;;;;;27.27;17.38;;;8.30;78.80;;;;;;5075219;28;20086;-13
2023/01/15 13:44:41;;;;;;;25.85;17.48;;;8.40;78.60;;;;;;5075592;28;20075;-13
2023/01/15 13:47:11;;;;;;;29.20;19.92;;;8.50;78.50;;;;;;5075072;28;20027;-13
2023/01/15 13:49:45;;;;;;;29.20;20.13;;;8.50;78.50;;;;;;5075456;28;20029;-13
2023/01/15 13:52:29;;;;;;;39.70;25.63;;;8.50;78.40;;;;;;5075408;28;20025;-13
2023/01/15 13:55:22;;;;;;;35.97;23.55;;;8.60;78.20;;;;;;5074095;28;20051;-13
2023/01/15 13:57:47;;;;;;;34.83;20.85;;;8.60;78.20;;;;;;5075475;28;20028;-13
2023/01/15 14:00:34;;;;;;;27.38;18.40;;;8.60;78.30;;;;;;5075032;28;20393;-13
2023/01/15 14:03:21;;;;;;;37.55;25.10;;;8.50;78.40;;;;;;5074730;28;20052;-13
2023/01/15 14:05:58;;;;;;;37.25;25.48;;;8.40;78.60;;;;;;5074850;28;20111;-12
2023/01/15 14:08:39;;;;;;;35.63;22.52;;;8.40;78.60;;;;;;5075003;28;20031;-13